Time,TemperatureF,DewpointF,PressureIn,WindDirection,WindDirectionDegrees,WindSpeedMPH,WindSpeedGustMPH,Humidity,HourlyPrecipIn,Conditions,Clouds,dailyrainin,SoftwareType,DateUTC
2013-02-01 00:03:00,43.3,42.6,30.06,West,269,0.0,0.0,97,0.00,,,0.00,meteohub,2013-02-01 08:03:00,
2013-02-01 00:08:00,43.5,42.8,30.06,West,269,0.0,0.0,97,0.00,,,0.00,meteohub,2013-02-01 08:08:00,
2013-02-01 00:13:00,43.5,42.8,30.06,West,269,0.0,0.0,97,0.00,,,0.00,meteohub,2013-02-01 08:13:00,
2013-02-01 00:18:00,43.5,42.8,30.06,West,269,0.0,0.0,97,0.00,,,0.00,meteohub,2013-02-01 08:18:00,
2013-02-01 00:23:00,43.5,42.8,30.06,West,269,0.0,0.0,97,0.00,,,0.00,meteohub,2013-02-01 08:23:00,
2013-02-01 00:28:00,43.3,42.6,30.06,West,269,0.0,0.0,97,0.00,,,0.00,meteohub,2013-02-01 08:28:00,
2013-02-01 00:33:00,43.3,42.6,30.06,West,269,0.0,0.0,97,0.00,,,0.00,meteohub,2013-02-01 08:33:00,
2013-02-01 00:38:00,43.3,42.6,30.06,West,269,0.0,0.0,97,0.00,,,0.00,meteohub,2013-02-01 08:38:00,
2013-02-01 00:43:00,43.2,42.4,30.06,West,269,0.0,0.0,97,0.00,,,0.00,meteohub,2013-02-01 08:43:00,
2013-02-01 00:48:00,43.2,42.4,30.06,West,269,0.0,0.0,97,0.00,,,0.00,meteohub,2013-02-01 08:48:00,
2013-02-01 00:53:00,43.2,42.4,30.06,West,269,0.0,0.0,97,0.00,,,0.00,meteohub,2013-02-01 08:53:00,
2013-02-01 00:58:00,43.3,42.6,30.06,West,269,0.0,0.0,97,0.00,,,0.00,meteohub,2013-02-01 08:58:00,
2013-02-01 01:03:00,43.3,42.6,30.06,West,269,0.0,0.0,97,0.00,,,0.00,meteohub,2013-02-01 09:03:00,
2013-02-01 01:08:00,43.3,42.6,30.06,West,269,0.0,0.0,97,0.00,,,0.00,meteohub,2013-02-01 09:08:00,
2013-02-01 01:13:00,43.3,42.6,30.06,West,269,0.0,0.0,97,0.00,,,0.00,meteohub,2013-02-01 09:13:00,
2013-02-01 01:18:00,43.3,42.6,30.06,West,269,0.0,0.0,97,0.00,,,0.00,meteohub,2013-02-01 09:18:00,
2013-02-01 01:23:00,43.5,42.8,30.05,West,269,0.0,0.0,97,0.00,,,0.00,meteohub,2013-02-01 09:23:00,
2013-02-01 01:28:00,43.5,42.8,30.05,West,269,0.0,0.0,97,0.00,,,0.00,meteohub,2013-02-01 09:28:00,
2013-02-01 01:33:00,43.5,42.8,30.05,West,269,0.0,0.0,97,0.00,,,0.00,meteohub,2013-02-01 09:33:00,
2013-02-01 01:39:00,43.3,42.6,30.05,West,269,0.0,0.0,97,0.00,,,0.00,meteohub,2013-02-01 09:39:00,
2013-02-01 01:44:00,43.7,43.0,30.05,West,269,0.0,0.0,97,0.00,,,0.00,meteohub,2013-02-01 09:44:00,
2013-02-01 01:49:00,43.7,43.0,30.05,West,269,0.0,0.0,97,0.00,,,0.00,meteohub,2013-02-01 09:49:00,
2013-02-01 01:54:00,43.7,43.0,30.05,West,269,0.0,0.0,97,0.00,,,0.00,meteohub,2013-02-01 09:54:00,
2013-02-01 01:59:00,43.5,42.8,30.05,West,269,0.0,0.0,97,0.00,,,0.00,meteohub,2013-02-01 09:59:00,
2013-02-01 02:04:00,43.7,43.0,30.05,West,269,0.0,2.0,97,0.00,,,0.00,meteohub,2013-02-01 10:04:00,
2013-02-01 02:09:00,43.5,42.8,30.05,West,269,0.0,2.0,97,0.00,,,0.00,meteohub,2013-02-01 10:09:00,
2013-02-01 02:14:00,43.5,42.8,30.05,West,269,0.0,2.0,97,0.00,,,0.00,meteohub,2013-02-01 10:14:00,
2013-02-01 02:19:00,43.5,42.8,30.05,West,269,0.0,0.0,97,0.00,,,0.00,meteohub,2013-02-01 10:19:00,
2013-02-01 02:24:00,43.3,42.6,30.05,West,269,0.0,0.0,97,0.00,,,0.00,meteohub,2013-02-01 10:24:00,
2013-02-01 02:29:00,43.3,42.6,30.05,West,269,0.0,0.0,97,0.00,,,0.00,meteohub,2013-02-01 10:29:00,
2013-02-01 02:34:00,43.2,42.4,30.05,West,269,0.0,0.0,97,0.00,,,0.00,meteohub,2013-02-01 10:34:00,
2013-02-01 02:39:00,43.0,42.3,30.05,West,269,0.0,0.0,97,0.00,,,0.00,meteohub,2013-02-01 10:39:00,
2013-02-01 02:44:00,43.0,42.3,30.05,West,269,0.0,0.0,97,0.00,,,0.00,meteohub,2013-02-01 10:44:00,
2013-02-01 02:49:00,42.8,42.1,30.05,West,269,0.0,0.0,97,0.00,,,0.00,meteohub,2013-02-01 10:49:00,
2013-02-01 02:54:00,42.6,41.9,30.05,West,269,0.0,0.0,97,0.00,,,0.00,meteohub,2013-02-01 10:54:00,
2013-02-01 02:59:00,42.4,41.7,30.05,West,269,0.0,0.0,97,0.00,,,0.00,meteohub,2013-02-01 10:59:00,
2013-02-01 03:04:00,42.3,41.5,30.05,West,269,0.0,0.0,97,0.00,,,0.00,meteohub,2013-02-01 11:04:00,
2013-02-01 03:09:00,42.3,41.5,30.05,West,269,0.0,0.0,97,0.00,,,0.00,meteohub,2013-02-01 11:09:00,
2013-02-01 03:14:00,42.1,41.4,30.05,West,269,0.0,0.0,97,0.00,,,0.00,meteohub,2013-02-01 11:14:00,
2013-02-01 03:19:00,41.9,41.2,30.05,West,269,0.0,0.0,97,0.00,,,0.00,meteohub,2013-02-01 11:19:00,
2013-02-01 03:24:00,41.7,41.0,30.05,West,269,1.0,0.0,97,0.00,,,0.00,meteohub,2013-02-01 11:24:00,
2013-02-01 03:29:00,42.1,41.4,30.05,West,269,0.0,0.0,97,0.00,,,0.00,meteohub,2013-02-01 11:29:00,
2013-02-01 03:34:00,42.1,41.4,30.05,West,269,0.0,1.0,97,0.00,,,0.00,meteohub,2013-02-01 11:34:00,
2013-02-01 03:39:00,42.1,41.4,30.05,West,269,1.0,1.0,97,0.00,,,0.00,meteohub,2013-02-01 11:39:00,
2013-02-01 03:44:00,42.1,41.4,30.05,West,269,0.0,0.0,97,0.00,,,0.00,meteohub,2013-02-01 11:44:00,
2013-02-01 03:49:00,41.9,41.2,30.05,West,269,0.0,1.0,97,0.00,,,0.00,meteohub,2013-02-01 11:49:00,
2013-02-01 03:54:00,41.7,41.0,30.05,West,269,0.0,1.0,97,0.00,,,0.00,meteohub,2013-02-01 11:54:00,
2013-02-01 03:59:00,41.5,40.8,30.05,West,269,0.0,0.0,97,0.00,,,0.00,meteohub,2013-02-01 11:59:00,
2013-02-01 04:04:00,41.4,40.6,30.05,West,269,0.0,0.0,97,0.00,,,0.00,meteohub,2013-02-01 12:04:00,
2013-02-01 04:09:00,41.2,40.5,30.05,West,269,0.0,0.0,97,0.00,,,0.00,meteohub,2013-02-01 12:09:00,
2013-02-01 04:14:00,41.0,40.3,30.05,West,269,0.0,0.0,97,0.00,,,0.00,meteohub,2013-02-01 12:14:00,
2013-02-01 04:19:00,40.8,40.1,30.05,West,269,0.0,0.0,97,0.00,,,0.00,meteohub,2013-02-01 12:19:00,
2013-02-01 04:24:00,40.8,40.1,30.06,West,269,0.0,0.0,97,0.00,,,0.00,meteohub,2013-02-01 12:24:00,
2013-02-01 04:29:00,40.8,40.1,30.06,West,269,0.0,0.0,97,0.00,,,0.00,meteohub,2013-02-01 12:29:00,
2013-02-01 04:34:00,40.6,39.9,30.06,West,269,0.0,0.0,97,0.00,,,0.00,meteohub,2013-02-01 12:34:00,
2013-02-01 04:39:00,40.8,40.1,30.06,West,269,0.0,0.0,97,0.00,,,0.00,meteohub,2013-02-01 12:39:00,
2013-02-01 04:44:00,40.6,39.9,30.06,West,269,0.0,0.0,97,0.00,,,0.00,meteohub,2013-02-01 12:44:00,
2013-02-01 04:49:00,40.6,39.9,30.06,West,269,0.0,0.0,97,0.00,,,0.00,meteohub,2013-02-01 12:49:00,
2013-02-01 04:54:00,40.5,39.7,30.06,West,269,0.0,0.0,97,0.00,,,0.00,meteohub,2013-02-01 12:54:00,
2013-02-01 04:59:00,40.5,39.7,30.06,West,269,0.0,0.0,97,0.00,,,0.00,meteohub,2013-02-01 12:59:00,
2013-02-01 05:04:00,40.3,39.6,30.06,West,269,0.0,0.0,97,0.00,,,0.00,meteohub,2013-02-01 13:04:00,
2013-02-01 05:09:00,40.3,39.6,30.06,West,269,0.0,0.0,97,0.00,,,0.00,meteohub,2013-02-01 13:09:00,
2013-02-01 05:14:00,40.1,39.4,30.06,West,269,0.0,0.0,97,0.00,,,0.00,meteohub,2013-02-01 13:14:00,
2013-02-01 05:19:00,40.1,39.4,30.06,West,269,0.0,0.0,97,0.00,,,0.00,meteohub,2013-02-01 13:19:00,
2013-02-01 05:24:00,40.3,39.6,30.06,West,269,0.0,0.0,97,0.00,,,0.00,meteohub,2013-02-01 13:24:00,
2013-02-01 05:29:00,40.3,39.6,30.06,West,269,0.0,0.0,97,0.00,,,0.00,meteohub,2013-02-01 13:29:00,
2013-02-01 05:35:00,40.3,39.6,30.06,West,269,0.0,0.0,97,0.00,,,0.00,meteohub,2013-02-01 13:35:00,
2013-02-01 05:40:00,40.3,39.6,30.06,West,269,0.0,0.0,97,0.00,,,0.00,meteohub,2013-02-01 13:40:00,
2013-02-01 05:45:00,40.3,39.6,30.06,West,269,0.0,0.0,97,0.00,,,0.00,meteohub,2013-02-01 13:45:00,
2013-02-01 05:50:00,40.5,39.9,30.06,West,269,0.0,0.0,98,0.00,,,0.00,meteohub,2013-02-01 13:50:00,
2013-02-01 05:55:00,40.5,39.9,30.06,West,269,0.0,0.0,98,0.00,,,0.00,meteohub,2013-02-01 13:55:00,
2013-02-01 06:00:00,40.5,39.9,30.06,West,269,0.0,0.0,98,0.00,,,0.00,meteohub,2013-02-01 14:00:00,
2013-02-01 06:05:00,40.5,39.9,30.06,West,269,0.0,0.0,98,0.00,,,0.00,meteohub,2013-02-01 14:05:00,
2013-02-01 06:10:00,40.5,39.7,30.06,West,269,0.0,0.0,97,0.00,,,0.00,meteohub,2013-02-01 14:10:00,
2013-02-01 06:15:00,40.3,39.6,30.06,West,269,0.0,0.0,97,0.00,,,0.00,meteohub,2013-02-01 14:15:00,
2013-02-01 06:20:00,40.3,39.6,30.06,West,269,0.0,0.0,97,0.00,,,0.00,meteohub,2013-02-01 14:20:00,
2013-02-01 06:25:00,40.3,39.6,30.06,West,269,0.0,0.0,97,0.00,,,0.00,meteohub,2013-02-01 14:25:00,
2013-02-01 06:30:00,40.1,39.4,30.06,West,269,0.0,0.0,97,0.00,,,0.00,meteohub,2013-02-01 14:30:00,
2013-02-01 06:35:00,40.1,39.4,30.06,West,269,0.0,0.0,97,0.00,,,0.00,meteohub,2013-02-01 14:35:00,
2013-02-01 06:40:00,39.9,39.4,30.06,West,269,0.0,0.0,98,0.00,,,0.00,meteohub,2013-02-01 14:40:00,
2013-02-01 06:45:00,39.9,39.4,30.06,West,269,0.0,0.0,98,0.00,,,0.00,meteohub,2013-02-01 14:45:00,
2013-02-01 06:50:00,39.9,39.4,30.06,West,269,0.0,0.0,98,0.00,,,0.00,meteohub,2013-02-01 14:50:00,
2013-02-01 06:55:00,39.9,39.4,30.06,West,269,0.0,0.0,98,0.00,,,0.00,meteohub,2013-02-01 14:55:00,
2013-02-01 07:00:00,40.1,39.6,30.06,West,269,0.0,0.0,98,0.00,,,0.00,meteohub,2013-02-01 15:00:00,
2013-02-01 07:05:00,39.9,39.4,30.06,West,269,0.0,0.0,98,0.00,,,0.00,meteohub,2013-02-01 15:05:00,
2013-02-01 07:10:00,39.7,39.2,30.07,West,269,0.0,0.0,98,0.00,,,0.00,meteohub,2013-02-01 15:10:00,
2013-02-01 07:15:00,39.7,39.2,30.07,West,269,0.0,0.0,98,0.00,,,0.00,meteohub,2013-02-01 15:15:00,
2013-02-01 07:20:00,39.6,38.8,30.07,West,269,0.0,0.0,97,0.00,,,0.00,meteohub,2013-02-01 15:20:00,
2013-02-01 07:25:00,39.6,38.8,30.07,West,269,0.0,0.0,97,0.00,,,0.00,meteohub,2013-02-01 15:25:00,
2013-02-01 07:30:00,39.6,38.8,30.07,West,269,0.0,0.0,97,0.00,,,0.00,meteohub,2013-02-01 15:30:00,
2013-02-01 07:35:00,39.6,39.0,30.07,West,269,0.0,0.0,98,0.00,,,0.00,meteohub,2013-02-01 15:35:00,
2013-02-01 07:40:00,39.7,39.2,30.08,West,269,0.0,0.0,98,0.00,,,0.00,meteohub,2013-02-01 15:40:00,
2013-02-01 07:45:00,39.7,39.2,30.08,West,269,0.0,0.0,98,0.00,,,0.00,meteohub,2013-02-01 15:45:00,
2013-02-01 07:50:00,39.7,39.2,30.08,West,269,0.0,0.0,98,0.00,,,0.00,meteohub,2013-02-01 15:50:00,
2013-02-01 07:55:00,39.7,39.2,30.07,West,269,0.0,0.0,98,0.00,,,0.00,meteohub,2013-02-01 15:55:00,
2013-02-01 08:00:00,39.9,39.4,30.07,West,269,0.0,0.0,98,0.00,,,0.00,meteohub,2013-02-01 16:00:00,
2013-02-01 08:05:00,40.1,39.6,30.07,West,269,0.0,0.0,98,0.00,,,0.00,meteohub,2013-02-01 16:05:00,
2013-02-01 08:10:00,40.3,39.7,30.07,West,269,0.0,0.0,98,0.00,,,0.00,meteohub,2013-02-01 16:10:00,
2013-02-01 08:15:00,40.8,40.3,30.07,West,269,0.0,0.0,98,0.00,,,0.00,meteohub,2013-02-01 16:15:00,
2013-02-01 08:20:00,41.7,41.2,30.07,West,269,0.0,0.0,98,0.00,,,0.00,meteohub,2013-02-01 16:20:00,
2013-02-01 08:25:00,42.6,42.1,30.07,West,269,2.0,0.0,98,0.00,,,0.00,meteohub,2013-02-01 16:25:00,
2013-02-01 08:30:00,42.8,42.3,30.07,West,269,1.0,3.0,98,0.00,,,0.00,meteohub,2013-02-01 16:30:00,
2013-02-01 08:35:00,43.2,42.6,30.07,West,269,0.0,3.0,98,0.00,,,0.00,meteohub,2013-02-01 16:35:00,
2013-02-01 08:40:00,43.7,43.2,30.08,West,269,0.0,3.0,98,0.00,,,0.00,meteohub,2013-02-01 16:40:00,
2013-02-01 08:45:00,44.4,44.2,30.08,West,269,0.0,1.0,99,0.00,,,0.00,meteohub,2013-02-01 16:45:00,
2013-02-01 08:50:00,44.2,43.7,30.08,West,269,0.0,1.0,98,0.00,,,0.00,meteohub,2013-02-01 16:50:00,
2013-02-01 08:55:00,44.2,43.7,30.08,West,269,0.0,1.0,98,0.00,,,0.00,meteohub,2013-02-01 16:55:00,
2013-02-01 09:00:00,44.1,43.5,30.08,West,269,0.0,0.0,98,0.00,,,0.00,meteohub,2013-02-01 17:00:00,
2013-02-01 09:05:00,44.8,44.2,30.08,West,269,0.0,2.0,98,0.00,,,0.00,meteohub,2013-02-01 17:05:00,
2013-02-01 09:10:00,45.3,44.8,30.08,West,269,0.0,3.0,98,0.00,,,0.00,meteohub,2013-02-01 17:10:00,
2013-02-01 09:15:00,45.7,45.1,30.08,West,269,0.0,3.0,98,0.00,,,0.00,meteohub,2013-02-01 17:15:00,
2013-02-01 09:20:00,45.9,45.3,30.08,West,269,0.0,1.0,98,0.00,,,0.00,meteohub,2013-02-01 17:20:00,
2013-02-01 09:25:00,45.7,45.1,30.07,West,269,0.0,2.0,98,0.00,,,0.00,meteohub,2013-02-01 17:25:00,
2013-02-01 09:30:00,45.7,45.1,30.07,West,269,0.0,2.0,98,0.00,,,0.00,meteohub,2013-02-01 17:30:00,
2013-02-01 09:35:00,45.7,45.0,30.07,West,269,0.0,2.0,97,0.00,,,0.00,meteohub,2013-02-01 17:35:00,
2013-02-01 09:40:00,46.0,45.0,30.06,West,269,0.0,0.0,96,0.00,,,0.00,meteohub,2013-02-01 17:40:00,
2013-02-01 09:46:00,47.1,46.4,30.06,West,269,0.0,2.0,97,0.00,,,0.00,meteohub,2013-02-01 17:46:00,
2013-02-01 09:51:00,48.0,46.4,30.06,West,269,0.0,2.0,94,0.00,,,0.00,meteohub,2013-02-01 17:51:00,
2013-02-01 09:56:00,48.7,46.2,30.07,West,269,0.0,2.0,91,0.00,,,0.00,meteohub,2013-02-01 17:56:00,
2013-02-01 10:01:00,49.5,46.9,30.07,West,269,0.0,1.0,91,0.00,,,0.00,meteohub,2013-02-01 18:01:00,
2013-02-01 10:06:00,50.5,47.5,30.07,West,269,0.0,1.0,89,0.00,,,0.00,meteohub,2013-02-01 18:06:00,
2013-02-01 10:11:00,51.4,46.4,30.07,West,269,0.0,1.0,83,0.00,,,0.00,meteohub,2013-02-01 18:11:00,
2013-02-01 10:16:00,52.3,46.9,30.07,West,269,0.0,1.0,82,0.00,,,0.00,meteohub,2013-02-01 18:16:00,
2013-02-01 10:21:00,53.2,47.5,30.07,West,269,0.0,1.0,81,0.00,,,0.00,meteohub,2013-02-01 18:21:00,
2013-02-01 10:26:00,54.0,48.0,30.06,West,269,0.0,1.0,80,0.00,,,0.00,meteohub,2013-02-01 18:26:00,
2013-02-01 10:31:00,54.7,48.4,30.06,West,269,0.0,1.0,79,0.00,,,0.00,meteohub,2013-02-01 18:31:00,
2013-02-01 10:36:00,55.0,48.4,30.06,West,269,0.0,0.0,78,0.00,,,0.00,meteohub,2013-02-01 18:36:00,
2013-02-01 10:41:00,55.8,48.7,30.07,West,269,0.0,0.0,77,0.00,,,0.00,meteohub,2013-02-01 18:41:00,
2013-02-01 10:46:00,56.5,48.7,30.07,West,269,2.0,2.0,75,0.00,,,0.00,meteohub,2013-02-01 18:46:00,
2013-02-01 10:51:00,57.2,48.9,30.07,West,269,0.0,3.0,74,0.00,,,0.00,meteohub,2013-02-01 18:51:00,
2013-02-01 10:56:00,57.6,48.2,30.07,West,269,0.0,3.0,71,0.00,,,0.00,meteohub,2013-02-01 18:56:00,
2013-02-01 11:01:00,57.7,48.7,30.07,West,269,0.0,3.0,72,0.00,,,0.00,meteohub,2013-02-01 19:01:00,
2013-02-01 11:06:00,58.3,48.6,30.07,West,269,0.0,2.0,70,0.00,,,0.00,meteohub,2013-02-01 19:06:00,
2013-02-01 11:11:00,59.0,48.0,30.07,West,269,0.0,2.0,67,0.00,,,0.00,meteohub,2013-02-01 19:11:00,
2013-02-01 11:16:00,59.5,48.2,30.07,West,269,0.0,2.0,66,0.00,,,0.00,meteohub,2013-02-01 19:16:00,
2013-02-01 11:21:00,59.9,48.9,30.07,West,269,1.0,3.0,67,0.00,,,0.00,meteohub,2013-02-01 19:21:00,
2013-02-01 11:26:00,60.3,48.4,30.06,West,269,0.0,3.0,65,0.00,,,0.00,meteohub,2013-02-01 19:26:00,
2013-02-01 11:31:00,60.3,48.9,30.06,West,269,1.0,2.0,66,0.00,,,0.00,meteohub,2013-02-01 19:31:00,
2013-02-01 11:36:00,60.4,49.5,30.06,West,269,0.0,2.0,67,0.00,,,0.00,meteohub,2013-02-01 19:36:00,
2013-02-01 11:41:00,60.8,48.6,30.06,West,269,0.0,2.0,64,0.00,,,0.00,meteohub,2013-02-01 19:41:00,
2013-02-01 11:46:00,61.3,49.1,30.06,West,269,0.0,3.0,64,0.00,,,0.00,meteohub,2013-02-01 19:46:00,
2013-02-01 11:51:00,61.5,48.0,30.06,West,269,1.0,3.0,61,0.00,,,0.00,meteohub,2013-02-01 19:51:00,
2013-02-01 11:56:00,61.5,47.1,30.05,West,269,0.0,3.0,59,0.00,,,0.00,meteohub,2013-02-01 19:56:00,
2013-02-01 12:01:00,61.2,48.9,30.05,West,269,1.0,3.0,64,0.00,,,0.00,meteohub,2013-02-01 20:01:00,
2013-02-01 12:06:00,60.6,48.0,30.05,West,269,0.0,3.0,63,0.00,,,0.00,meteohub,2013-02-01 20:06:00,
2013-02-01 12:11:00,60.6,46.6,30.04,West,269,0.0,3.0,60,0.00,,,0.00,meteohub,2013-02-01 20:11:00,
2013-02-01 12:16:00,61.0,47.5,30.04,West,269,0.0,3.0,61,0.00,,,0.00,meteohub,2013-02-01 20:16:00,
2013-02-01 12:21:00,61.0,45.7,30.04,West,269,0.0,3.0,57,0.00,,,0.00,meteohub,2013-02-01 20:21:00,
2013-02-01 12:26:00,61.2,46.8,30.03,West,269,1.0,4.0,59,0.00,,,0.00,meteohub,2013-02-01 20:26:00,
2013-02-01 12:31:00,61.5,46.2,30.03,West,269,0.0,4.0,57,0.00,,,0.00,meteohub,2013-02-01 20:31:00,
2013-02-01 12:36:00,61.7,46.4,30.03,West,269,0.0,3.0,57,0.00,,,0.00,meteohub,2013-02-01 20:36:00,
2013-02-01 12:41:00,61.9,44.6,30.02,West,269,0.0,3.0,53,0.00,,,0.00,meteohub,2013-02-01 20:41:00,
2013-02-01 12:46:00,62.2,43.9,30.02,West,276,1.0,6.0,51,0.00,,,0.00,meteohub,2013-02-01 20:46:00,
2013-02-01 12:51:00,62.6,45.1,30.02,West,276,0.0,6.0,53,0.00,,,0.00,meteohub,2013-02-01 20:51:00,
2013-02-01 12:56:00,62.6,44.8,30.01,West,276,0.0,6.0,52,0.00,,,0.00,meteohub,2013-02-01 20:56:00,
2013-02-01 13:01:00,62.4,43.5,30.01,West,276,0.0,4.0,50,0.00,,,0.00,meteohub,2013-02-01 21:01:00,
2013-02-01 13:06:00,62.4,43.0,30.01,West,276,0.0,4.0,49,0.00,,,0.00,meteohub,2013-02-01 21:06:00,
2013-02-01 13:11:00,63.0,44.6,30.01,WNW,282,0.0,3.0,51,0.00,,,0.00,meteohub,2013-02-01 21:11:00,
2013-02-01 13:16:00,63.1,44.8,30.01,WNW,282,0.0,5.0,51,0.00,,,0.00,meteohub,2013-02-01 21:16:00,
2013-02-01 13:21:00,63.1,44.2,30.01,WNW,282,1.0,5.0,50,0.00,,,0.00,meteohub,2013-02-01 21:21:00,
2013-02-01 13:26:00,63.3,43.9,30.00,West,281,4.0,4.0,49,0.00,,,0.00,meteohub,2013-02-01 21:26:00,
2013-02-01 13:31:00,63.5,44.1,30.00,West,281,0.0,5.0,49,0.00,,,0.00,meteohub,2013-02-01 21:31:00,
2013-02-01 13:36:00,63.7,44.8,30.00,WNW,286,1.0,5.0,50,0.00,,,0.00,meteohub,2013-02-01 21:36:00,
2013-02-01 13:41:00,64.0,45.0,30.00,WNW,286,0.0,5.0,50,0.00,,,0.00,meteohub,2013-02-01 21:41:00,
2013-02-01 13:47:00,64.2,42.4,30.00,WNW,289,0.0,5.0,45,0.00,,,0.00,meteohub,2013-02-01 21:47:00,
2013-02-01 13:52:00,64.2,44.6,30.00,WNW,289,0.0,5.0,49,0.00,,,0.00,meteohub,2013-02-01 21:52:00,
2013-02-01 13:57:00,64.0,43.9,30.00,WNW,289,2.0,5.0,48,0.00,,,0.00,meteohub,2013-02-01 21:57:00,
2013-02-01 14:02:00,64.0,44.4,30.00,WNW,289,2.0,5.0,49,0.00,,,0.00,meteohub,2013-02-01 22:02:00,
2013-02-01 14:07:00,64.0,44.4,30.00,WNW,289,0.0,3.0,49,0.00,,,0.00,meteohub,2013-02-01 22:07:00,
2013-02-01 14:12:00,64.2,45.7,29.99,WNW,289,0.0,3.0,51,0.00,,,0.00,meteohub,2013-02-01 22:12:00,
2013-02-01 14:17:00,64.0,46.0,29.99,WNW,289,3.0,3.0,52,0.00,,,0.00,meteohub,2013-02-01 22:17:00,
2013-02-01 14:22:00,64.0,44.4,29.99,WNW,289,0.0,3.0,49,0.00,,,0.00,meteohub,2013-02-01 22:22:00,
2013-02-01 14:27:00,63.9,45.3,29.99,WNW,289,0.0,3.0,51,0.00,,,0.00,meteohub,2013-02-01 22:27:00,
2013-02-01 14:32:00,63.5,45.5,29.99,WNW,289,0.0,3.0,52,0.00,,,0.00,meteohub,2013-02-01 22:32:00,
2013-02-01 14:37:00,63.1,45.1,29.99,WNW,289,3.0,3.0,52,0.00,,,0.00,meteohub,2013-02-01 22:37:00,
2013-02-01 14:42:00,63.1,46.2,30.00,WNW,289,0.0,3.0,54,0.00,,,0.00,meteohub,2013-02-01 22:42:00,
2013-02-01 14:47:00,63.1,47.1,30.00,WNW,289,0.0,3.0,56,0.00,,,0.00,meteohub,2013-02-01 22:47:00,
2013-02-01 14:52:00,62.6,47.1,30.00,WNW,289,0.0,3.0,57,0.00,,,0.00,meteohub,2013-02-01 22:52:00,
2013-02-01 14:57:00,62.2,47.3,30.00,WNW,289,0.0,2.0,58,0.00,,,0.00,meteohub,2013-02-01 22:57:00,
2013-02-01 15:02:00,62.1,47.1,30.00,WNW,289,0.0,1.0,58,0.00,,,0.00,meteohub,2013-02-01 23:02:00,
2013-02-01 15:07:00,62.1,47.5,30.00,WNW,289,0.0,1.0,59,0.00,,,0.00,meteohub,2013-02-01 23:07:00,
2013-02-01 15:12:00,61.9,47.5,29.99,WNW,289,0.0,2.0,59,0.00,,,0.00,meteohub,2013-02-01 23:12:00,
2013-02-01 15:17:00,61.7,46.4,29.99,WNW,289,0.0,2.0,57,0.00,,,0.00,meteohub,2013-02-01 23:17:00,
2013-02-01 15:22:00,61.9,46.9,29.99,WNW,289,0.0,2.0,58,0.00,,,0.00,meteohub,2013-02-01 23:22:00,
2013-02-01 15:27:00,61.7,45.9,29.99,WNW,289,1.0,1.0,56,0.00,,,0.00,meteohub,2013-02-01 23:27:00,
2013-02-01 15:32:00,61.9,47.8,29.99,WNW,289,0.0,2.0,60,0.00,,,0.00,meteohub,2013-02-01 23:32:00,
2013-02-01 15:37:00,61.5,47.1,29.99,WNW,289,0.0,2.0,59,0.00,,,0.00,meteohub,2013-02-01 23:37:00,
2013-02-01 15:42:00,61.3,48.6,29.99,WNW,289,0.0,2.0,63,0.00,,,0.00,meteohub,2013-02-01 23:42:00,
2013-02-01 15:47:00,61.0,48.7,29.99,WNW,289,0.0,1.0,64,0.00,,,0.00,meteohub,2013-02-01 23:47:00,
2013-02-01 15:52:00,60.4,49.1,29.99,WNW,289,0.0,1.0,66,0.00,,,0.00,meteohub,2013-02-01 23:52:00,
2013-02-01 15:57:00,60.3,48.0,29.99,WNW,289,0.0,1.0,64,0.00,,,0.00,meteohub,2013-02-01 23:57:00,
2013-02-01 16:02:00,60.3,48.4,29.99,WNW,289,0.0,1.0,65,0.00,,,0.00,meteohub,2013-02-02 00:02:00,
2013-02-01 16:07:00,60.3,49.3,29.99,WNW,289,0.0,1.0,67,0.00,,,0.00,meteohub,2013-02-02 00:07:00,
2013-02-01 16:12:00,60.1,49.1,29.99,WNW,289,0.0,1.0,67,0.00,,,0.00,meteohub,2013-02-02 00:12:00,
2013-02-01 16:17:00,59.9,48.6,29.99,WNW,289,0.0,0.0,66,0.00,,,0.00,meteohub,2013-02-02 00:17:00,
2013-02-01 16:22:00,59.7,49.1,29.99,WNW,289,0.0,0.0,68,0.00,,,0.00,meteohub,2013-02-02 00:22:00,
2013-02-01 16:27:00,59.5,49.3,29.99,WNW,289,0.0,0.0,69,0.00,,,0.00,meteohub,2013-02-02 00:27:00,
2013-02-01 16:32:00,59.4,48.7,29.99,WNW,289,0.0,0.0,68,0.00,,,0.00,meteohub,2013-02-02 00:32:00,
2013-02-01 16:37:00,59.2,49.1,29.99,WNW,289,0.0,0.0,69,0.00,,,0.00,meteohub,2013-02-02 00:37:00,
2013-02-01 16:42:00,59.0,49.3,29.99,WNW,289,0.0,0.0,70,0.00,,,0.00,meteohub,2013-02-02 00:42:00,
2013-02-01 16:47:00,58.8,49.1,29.99,WNW,289,0.0,0.0,70,0.00,,,0.00,meteohub,2013-02-02 00:47:00,
2013-02-01 16:52:00,58.5,49.1,29.99,WNW,289,0.0,1.0,71,0.00,,,0.00,meteohub,2013-02-02 00:52:00,
2013-02-01 16:57:00,58.3,49.3,29.99,WNW,289,0.0,1.0,72,0.00,,,0.00,meteohub,2013-02-02 00:57:00,
2013-02-01 17:02:00,57.9,48.6,29.99,WNW,289,0.0,0.0,71,0.00,,,0.00,meteohub,2013-02-02 01:02:00,
2013-02-01 17:07:00,57.9,48.9,29.99,WNW,289,0.0,0.0,72,0.00,,,0.00,meteohub,2013-02-02 01:07:00,
2013-02-01 17:13:00,57.9,48.9,30.00,WNW,289,0.0,1.0,72,0.00,,,0.00,meteohub,2013-02-02 01:13:00,
2013-02-01 17:18:00,57.7,48.7,30.00,WNW,289,0.0,1.0,72,0.00,,,0.00,meteohub,2013-02-02 01:18:00,
2013-02-01 17:23:00,57.4,48.7,30.00,WNW,289,0.0,0.0,73,0.00,,,0.00,meteohub,2013-02-02 01:23:00,
2013-02-01 17:28:00,56.8,47.8,30.01,WNW,289,0.0,0.0,72,0.00,,,0.00,meteohub,2013-02-02 01:28:00,
2013-02-01 17:33:00,56.3,47.5,30.01,WNW,289,0.0,0.0,72,0.00,,,0.00,meteohub,2013-02-02 01:33:00,
2013-02-01 17:38:00,55.8,46.9,30.01,WNW,289,0.0,0.0,72,0.00,,,0.00,meteohub,2013-02-02 01:38:00,
2013-02-01 17:43:00,55.0,46.6,30.01,WNW,289,0.0,0.0,73,0.00,,,0.00,meteohub,2013-02-02 01:43:00,
2013-02-01 17:48:00,54.7,46.6,30.01,WNW,289,0.0,0.0,74,0.00,,,0.00,meteohub,2013-02-02 01:48:00,
2013-02-01 17:53:00,54.1,46.4,30.01,WNW,289,0.0,0.0,75,0.00,,,0.00,meteohub,2013-02-02 01:53:00,
2013-02-01 17:58:00,53.6,46.2,30.03,WNW,289,0.0,0.0,76,0.00,,,0.00,meteohub,2013-02-02 01:58:00,
2013-02-01 18:03:00,53.2,45.9,30.03,WNW,289,0.0,0.0,76,0.00,,,0.00,meteohub,2013-02-02 02:03:00,
2013-02-01 18:08:00,52.9,45.9,30.03,WNW,289,0.0,0.0,77,0.00,,,0.00,meteohub,2013-02-02 02:08:00,
2013-02-01 18:13:00,52.3,45.3,30.03,WNW,289,0.0,0.0,77,0.00,,,0.00,meteohub,2013-02-02 02:13:00,
2013-02-01 18:18:00,52.0,45.7,30.03,WNW,289,0.0,0.0,79,0.00,,,0.00,meteohub,2013-02-02 02:18:00,
2013-02-01 18:23:00,51.6,45.3,30.03,WNW,289,0.0,0.0,79,0.00,,,0.00,meteohub,2013-02-02 02:23:00,
2013-02-01 18:28:00,51.4,45.5,30.04,WNW,289,0.0,0.0,80,0.00,,,0.00,meteohub,2013-02-02 02:28:00,
2013-02-01 18:33:00,51.1,45.5,30.04,WNW,289,0.0,0.0,81,0.00,,,0.00,meteohub,2013-02-02 02:33:00,
2013-02-01 18:38:00,50.9,45.0,30.04,WNW,289,0.0,0.0,80,0.00,,,0.00,meteohub,2013-02-02 02:38:00,
2013-02-01 18:43:00,50.5,45.0,30.04,WNW,289,0.0,0.0,81,0.00,,,0.00,meteohub,2013-02-02 02:43:00,
2013-02-01 18:48:00,50.4,45.1,30.04,WNW,289,0.0,0.0,82,0.00,,,0.00,meteohub,2013-02-02 02:48:00,
2013-02-01 18:53:00,50.4,45.1,30.04,WNW,289,0.0,0.0,82,0.00,,,0.00,meteohub,2013-02-02 02:53:00,
2013-02-01 18:58:00,50.2,45.1,30.05,WNW,289,0.0,0.0,83,0.00,,,0.00,meteohub,2013-02-02 02:58:00,
2013-02-01 19:03:00,50.0,45.3,30.05,WNW,289,0.0,0.0,84,0.00,,,0.00,meteohub,2013-02-02 03:03:00,
2013-02-01 19:08:00,49.8,44.8,30.05,WNW,289,0.0,0.0,83,0.00,,,0.00,meteohub,2013-02-02 03:08:00,
2013-02-01 19:13:00,49.6,44.8,30.06,WNW,289,0.0,0.0,83,0.00,,,0.00,meteohub,2013-02-02 03:13:00,
2013-02-01 19:18:00,49.5,44.8,30.06,WNW,289,0.0,0.0,84,0.00,,,0.00,meteohub,2013-02-02 03:18:00,
2013-02-01 19:23:00,49.5,45.1,30.06,WNW,289,0.0,0.0,85,0.00,,,0.00,meteohub,2013-02-02 03:23:00,
2013-02-01 19:28:00,49.3,45.0,30.07,WNW,289,0.0,0.0,85,0.00,,,0.00,meteohub,2013-02-02 03:28:00,
2013-02-01 19:33:00,49.1,44.8,30.07,WNW,289,0.0,0.0,85,0.00,,,0.00,meteohub,2013-02-02 03:33:00,
2013-02-01 19:38:00,48.9,44.6,30.07,WNW,289,0.0,0.0,85,0.00,,,0.00,meteohub,2013-02-02 03:38:00,
2013-02-01 19:43:00,48.9,44.6,30.07,WNW,289,0.0,0.0,85,0.00,,,0.00,meteohub,2013-02-02 03:43:00,
2013-02-01 19:48:00,48.9,44.6,30.07,WNW,289,0.0,0.0,85,0.00,,,0.00,meteohub,2013-02-02 03:48:00,
2013-02-01 19:53:00,48.7,44.4,30.06,WNW,289,0.0,0.0,85,0.00,,,0.00,meteohub,2013-02-02 03:53:00,
2013-02-01 19:58:00,48.7,44.4,30.06,WNW,289,0.0,0.0,85,0.00,,,0.00,meteohub,2013-02-02 03:58:00,
2013-02-01 20:03:00,48.6,44.2,30.06,WNW,289,0.0,0.0,85,0.00,,,0.00,meteohub,2013-02-02 04:03:00,
2013-02-01 20:08:00,48.4,44.4,30.06,WNW,289,0.0,0.0,86,0.00,,,0.00,meteohub,2013-02-02 04:08:00,
2013-02-01 20:13:00,48.2,44.2,30.06,WNW,289,0.0,0.0,86,0.00,,,0.00,meteohub,2013-02-02 04:13:00,
2013-02-01 20:18:00,48.0,44.1,30.06,WNW,289,0.0,0.0,86,0.00,,,0.00,meteohub,2013-02-02 04:18:00,
2013-02-01 20:24:00,47.8,43.9,30.06,WNW,289,0.0,0.0,86,0.00,,,0.00,meteohub,2013-02-02 04:24:00,
2013-02-01 20:29:00,47.7,44.1,30.06,WNW,289,0.0,0.0,87,0.00,,,0.00,meteohub,2013-02-02 04:29:00,
2013-02-01 20:34:00,47.5,43.9,30.06,WNW,289,0.0,0.0,87,0.00,,,0.00,meteohub,2013-02-02 04:34:00,
2013-02-01 20:39:00,47.5,44.1,30.06,WNW,289,0.0,0.0,88,0.00,,,0.00,meteohub,2013-02-02 04:39:00,
2013-02-01 20:44:00,47.3,43.9,30.06,WNW,289,0.0,0.0,88,0.00,,,0.00,meteohub,2013-02-02 04:44:00,
2013-02-01 20:49:00,47.1,44.1,30.06,WNW,289,0.0,0.0,89,0.00,,,0.00,meteohub,2013-02-02 04:49:00,
2013-02-01 20:54:00,47.1,44.1,30.06,WNW,289,0.0,0.0,89,0.00,,,0.00,meteohub,2013-02-02 04:54:00,
2013-02-01 20:59:00,47.1,44.1,30.06,WNW,289,0.0,0.0,89,0.00,,,0.00,meteohub,2013-02-02 04:59:00,
2013-02-01 21:00:00,47.1,44.1,30.06,WNW,289,0.0,0.0,89,0.00,,,0.00,meteohub,2013-02-02 05:00:00,
2013-02-01 21:01:00,47.1,44.1,30.06,WNW,289,0.0,0.0,89,0.00,,,0.00,meteohub,2013-02-02 05:01:00,
2013-02-01 21:06:00,46.9,43.9,30.06,WNW,289,0.0,0.0,89,0.00,,,0.00,meteohub,2013-02-02 05:06:00,
2013-02-01 21:11:00,46.9,44.2,30.06,WNW,289,0.0,0.0,90,0.00,,,0.00,meteohub,2013-02-02 05:11:00,
2013-02-01 21:16:00,46.9,44.2,30.06,WNW,289,0.0,0.0,90,0.00,,,0.00,meteohub,2013-02-02 05:16:00,
2013-02-01 21:21:00,46.9,44.2,30.06,WNW,289,0.0,0.0,90,0.00,,,0.00,meteohub,2013-02-02 05:21:00,
2013-02-01 21:27:00,46.9,44.4,30.06,WNW,289,0.0,0.0,91,0.00,,,0.00,meteohub,2013-02-02 05:27:00,
2013-02-01 21:32:00,46.9,44.2,30.06,WNW,289,0.0,0.0,90,0.00,,,0.00,meteohub,2013-02-02 05:32:00,
2013-02-01 21:37:00,46.9,44.2,30.06,WNW,289,0.0,0.0,90,0.00,,,0.00,meteohub,2013-02-02 05:37:00,
2013-02-01 21:42:00,46.8,44.1,30.07,WNW,289,0.0,0.0,90,0.00,,,0.00,meteohub,2013-02-02 05:42:00,
2013-02-01 21:47:00,46.8,44.1,30.07,WNW,289,0.0,0.0,90,0.00,,,0.00,meteohub,2013-02-02 05:47:00,
2013-02-01 21:52:00,46.6,43.9,30.07,WNW,289,0.0,0.0,90,0.00,,,0.00,meteohub,2013-02-02 05:52:00,
2013-02-01 21:57:00,46.6,43.9,30.07,WNW,289,0.0,0.0,90,0.00,,,0.00,meteohub,2013-02-02 05:57:00,
2013-02-01 22:02:00,46.4,43.9,30.07,WNW,289,0.0,0.0,91,0.00,,,0.00,meteohub,2013-02-02 06:02:00,
2013-02-01 22:07:00,46.2,43.5,30.07,WNW,289,0.0,0.0,90,0.00,,,0.00,meteohub,2013-02-02 06:07:00,
2013-02-01 22:12:00,46.2,43.7,30.07,WNW,289,0.0,0.0,91,0.00,,,0.00,meteohub,2013-02-02 06:12:00,
2013-02-01 22:17:00,46.2,43.7,30.07,WNW,289,0.0,0.0,91,0.00,,,0.00,meteohub,2013-02-02 06:17:00,
2013-02-01 22:22:00,46.0,43.5,30.07,WNW,289,0.0,0.0,91,0.00,,,0.00,meteohub,2013-02-02 06:22:00,
2013-02-01 22:27:00,46.0,43.5,30.07,WNW,289,0.0,0.0,91,0.00,,,0.00,meteohub,2013-02-02 06:27:00,
2013-02-01 22:32:00,46.0,43.5,30.07,WNW,289,0.0,0.0,91,0.00,,,0.00,meteohub,2013-02-02 06:32:00,
2013-02-01 22:37:00,45.9,43.3,30.07,WNW,289,0.0,0.0,91,0.00,,,0.00,meteohub,2013-02-02 06:37:00,
2013-02-01 22:42:00,45.9,43.3,30.07,WNW,289,0.0,0.0,91,0.00,,,0.00,meteohub,2013-02-02 06:42:00,
2013-02-01 22:47:00,45.9,43.7,30.07,WNW,289,0.0,0.0,92,0.00,,,0.00,meteohub,2013-02-02 06:47:00,
2013-02-01 22:52:00,45.7,43.5,30.07,WNW,289,0.0,0.0,92,0.00,,,0.00,meteohub,2013-02-02 06:52:00,
2013-02-01 22:57:00,45.7,43.2,30.07,WNW,289,0.0,0.0,91,0.00,,,0.00,meteohub,2013-02-02 06:57:00,
2013-02-01 23:02:00,45.5,43.3,30.07,WNW,289,0.0,0.0,92,0.00,,,0.00,meteohub,2013-02-02 07:02:00,
2013-02-01 23:07:00,45.3,43.2,30.07,WNW,289,0.0,0.0,92,0.00,,,0.00,meteohub,2013-02-02 07:07:00,
2013-02-01 23:12:00,45.3,43.3,30.07,WNW,289,0.0,0.0,93,0.00,,,0.00,meteohub,2013-02-02 07:12:00,
2013-02-01 23:17:00,45.5,43.5,30.07,WNW,289,0.0,0.0,93,0.00,,,0.00,meteohub,2013-02-02 07:17:00,
2013-02-01 23:22:00,45.7,43.7,30.07,WNW,289,0.0,0.0,93,0.00,,,0.00,meteohub,2013-02-02 07:22:00,
2013-02-01 23:27:00,45.9,43.9,30.08,WNW,289,0.0,0.0,93,0.00,,,0.00,meteohub,2013-02-02 07:27:00,
2013-02-01 23:32:00,45.9,43.7,30.08,WNW,289,0.0,0.0,92,0.00,,,0.00,meteohub,2013-02-02 07:32:00,
2013-02-01 23:37:00,45.9,43.7,30.08,WNW,289,0.0,0.0,92,0.00,,,0.00,meteohub,2013-02-02 07:37:00,
2013-02-01 23:42:00,45.7,43.2,30.08,WNW,289,0.0,0.0,91,0.00,,,0.00,meteohub,2013-02-02 07:42:00,
2013-02-01 23:47:00,45.3,42.8,30.08,WNW,289,0.0,0.0,91,0.00,,,0.00,meteohub,2013-02-02 07:47:00,
2013-02-01 23:52:00,45.3,43.2,30.08,WNW,289,0.0,0.0,92,0.00,,,0.00,meteohub,2013-02-02 07:52:00,
2013-02-01 23:57:00,45.1,43.0,30.08,WNW,289,0.0,0.0,92,0.00,,,0.00,meteohub,2013-02-02 07:57:00,